sensor_id;sensor_type;location;lat;lon;timestamp;temperature;humidity
35700;DHT22;21818;51.078;12.108;2023-11-21T00:01:02;13.40;92.70
35700;DHT22;21818;51.078;12.108;2023-11-21T00:03:32;13.40;92.70
35700;DHT22;21818;51.078;12.108;2023-11-21T00:05:58;13.30;92.70
35700;DHT22;21818;51.078;12.108;2023-11-21T00:08:24;13.30;92.70
35700;DHT22;21818;51.078;12.108;2023-11-21T00:10:49;13.30;92.70
35700;DHT22;21818;51.078;12.108;2023-11-21T00:13:16;13.30;92.70
35700;DHT22;21818;51.078;12.108;2023-11-21T00:15:42;13.30;92.70
35700;DHT22;21818;51.078;12.108;2023-11-21T00:18:07;13.30;92.70
35700;DHT22;21818;51.078;12.108;2023-11-21T00:20:33;13.30;92.80
35700;DHT22;21818;51.078;12.108;2023-11-21T00:22:58;13.30;92.80
35700;DHT22;21818;51.078;12.108;2023-11-21T00:25:25;13.30;92.80
35700;DHT22;21818;51.078;12.108;2023-11-21T00:27:50;13.30;92.90
35700;DHT22;21818;51.078;12.108;2023-11-21T00:30:16;13.20;92.90
35700;DHT22;21818;51.078;12.108;2023-11-21T00:32:41;13.20;92.90
35700;DHT22;21818;51.078;12.108;2023-11-21T00:35:07;13.30;93.00
35700;DHT22;21818;51.078;12.108;2023-11-21T00:37:33;13.20;92.90
35700;DHT22;21818;51.078;12.108;2023-11-21T00:39:59;13.30;93.00
35700;DHT22;21818;51.078;12.108;2023-11-21T00:42:24;13.30;93.00
35700;DHT22;21818;51.078;12.108;2023-11-21T00:44:50;13.30;93.00
35700;DHT22;21818;51.078;12.108;2023-11-21T00:47:16;13.30;93.00
35700;DHT22;21818;51.078;12.108;2023-11-21T00:49:42;13.20;93.00
35700;DHT22;21818;51.078;12.108;2023-11-21T00:52:07;13.20;93.00
35700;DHT22;21818;51.078;12.108;2023-11-21T00:54:33;13.20;92.90
35700;DHT22;21818;51.078;12.108;2023-11-21T00:56:59;13.20;93.30
35700;DHT22;21818;51.078;12.108;2023-11-21T00:59:24;13.20;93.00
35700;DHT22;21818;51.078;12.108;2023-11-21T01:01:50;13.20;93.10
35700;DHT22;21818;51.078;12.108;2023-11-21T01:04:16;13.10;93.10
35700;DHT22;21818;51.078;12.108;2023-11-21T01:06:41;13.10;93.00
35700;DHT22;21818;51.078;12.108;2023-11-21T01:09:07;13.10;93.10
35700;DHT22;21818;51.078;12.108;2023-11-21T01:11:34;13.10;93.10
35700;DHT22;21818;51.078;12.108;2023-11-21T01:14:03;13.10;93.20
35700;DHT22;21818;51.078;12.108;2023-11-21T01:16:29;13.10;93.20
35700;DHT22;21818;51.078;12.108;2023-11-21T01:18:55;13.10;93.10
35700;DHT22;21818;51.078;12.108;2023-11-21T01:21:20;13.10;93.20
35700;DHT22;21818;51.078;12.108;2023-11-21T01:23:47;13.10;93.20
35700;DHT22;21818;51.078;12.108;2023-11-21T01:26:13;13.10;93.10
35700;DHT22;21818;51.078;12.108;2023-11-21T01:28:38;13.10;93.10
35700;DHT22;21818;51.078;12.108;2023-11-21T01:31:04;13.10;93.10
35700;DHT22;21818;51.078;12.108;2023-11-21T01:33:29;13.10;93.10
35700;DHT22;21818;51.078;12.108;2023-11-21T01:35:55;13.10;93.10
35700;DHT22;21818;51.078;12.108;2023-11-21T01:38:21;13.20;93.10
35700;DHT22;21818;51.078;12.108;2023-11-21T01:40:47;13.20;93.10
35700;DHT22;21818;51.078;12.108;2023-11-21T01:43:13;13.20;93.10
35700;DHT22;21818;51.078;12.108;2023-11-21T01:45:39;13.20;93.10
35700;DHT22;21818;51.078;12.108;2023-11-21T01:48:05;13.20;93.10
35700;DHT22;21818;51.078;12.108;2023-11-21T01:50:32;13.20;93.10
35700;DHT22;21818;51.078;12.108;2023-11-21T01:52:59;13.20;93.00
35700;DHT22;21818;51.078;12.108;2023-11-21T01:55:26;13.20;93.10
35700;DHT22;21818;51.078;12.108;2023-11-21T01:57:53;13.20;93.10
35700;DHT22;21818;51.078;12.108;2023-11-21T02:00:19;13.20;93.00
35700;DHT22;21818;51.078;12.108;2023-11-21T02:02:48;13.20;93.00
35700;DHT22;21818;51.078;12.108;2023-11-21T02:05:18;13.20;93.00
35700;DHT22;21818;51.078;12.108;2023-11-21T02:07:45;13.20;93.00
35700;DHT22;21818;51.078;12.108;2023-11-21T02:10:14;13.20;93.00
35700;DHT22;21818;51.078;12.108;2023-11-21T02:12:43;13.10;93.00
35700;DHT22;21818;51.078;12.108;2023-11-21T02:15:13;13.10;93.10
35700;DHT22;21818;51.078;12.108;2023-11-21T02:17:49;13.10;93.10
35700;DHT22;21818;51.078;12.108;2023-11-21T02:20:20;13.10;93.10
35700;DHT22;21818;51.078;12.108;2023-11-21T02:22:55;13.10;93.00
35700;DHT22;21818;51.078;12.108;2023-11-21T02:25:32;13.10;93.00
35700;DHT22;21818;51.078;12.108;2023-11-21T02:28:00;13.10;93.10
35700;DHT22;21818;51.078;12.108;2023-11-21T02:30:26;13.10;93.20
35700;DHT22;21818;51.078;12.108;2023-11-21T02:32:57;13.10;93.10
35700;DHT22;21818;51.078;12.108;2023-11-21T02:35:23;13.10;93.10
35700;DHT22;21818;51.078;12.108;2023-11-21T02:37:51;13.10;93.10
35700;DHT22;21818;51.078;12.108;2023-11-21T02:40:17;13.10;93.20
35700;DHT22;21818;51.078;12.108;2023-11-21T02:42:44;13.10;93.10
35700;DHT22;21818;51.078;12.108;2023-11-21T02:45:09;13.10;93.20
35700;DHT22;21818;51.078;12.108;2023-11-21T02:47:38;13.10;93.20
35700;DHT22;21818;51.078;12.108;2023-11-21T02:50:04;13.10;93.20
35700;DHT22;21818;51.078;12.108;2023-11-21T02:52:31;13.10;93.30
35700;DHT22;21818;51.078;12.108;2023-11-21T02:54:58;13.20;93.20
35700;DHT22;21818;51.078;12.108;2023-11-21T02:57:24;13.10;93.30
35700;DHT22;21818;51.078;12.108;2023-11-21T02:59:49;13.10;93.30
35700;DHT22;21818;51.078;12.108;2023-11-21T03:02:15;13.20;93.30
35700;DHT22;21818;51.078;12.108;2023-11-21T03:04:41;13.10;93.40
35700;DHT22;21818;51.078;12.108;2023-11-21T03:07:08;13.10;93.50
35700;DHT22;21818;51.078;12.108;2023-11-21T03:09:34;13.10;93.50
35700;DHT22;21818;51.078;12.108;2023-11-21T03:12:00;13.00;93.50
35700;DHT22;21818;51.078;12.108;2023-11-21T03:14:26;13.10;93.50
35700;DHT22;21818;51.078;12.108;2023-11-21T03:16:51;13.10;93.60
35700;DHT22;21818;51.078;12.108;2023-11-21T03:19:17;13.10;93.60
35700;DHT22;21818;51.078;12.108;2023-11-21T03:21:43;13.10;93.50
35700;DHT22;21818;51.078;12.108;2023-11-21T03:24:08;13.00;93.60
35700;DHT22;21818;51.078;12.108;2023-11-21T03:26:34;13.00;93.70
35700;DHT22;21818;51.078;12.108;2023-11-21T03:28:59;12.90;93.70
35700;DHT22;21818;51.078;12.108;2023-11-21T03:31:25;12.90;93.80
35700;DHT22;21818;51.078;12.108;2023-11-21T03:33:52;12.80;93.80
35700;DHT22;21818;51.078;12.108;2023-11-21T03:36:19;12.80;93.80
35700;DHT22;21818;51.078;12.108;2023-11-21T03:38:45;12.80;93.90
35700;DHT22;21818;51.078;12.108;2023-11-21T03:41:10;12.80;93.90
35700;DHT22;21818;51.078;12.108;2023-11-21T03:43:37;12.80;93.90
35700;DHT22;21818;51.078;12.108;2023-11-21T03:46:03;12.80;93.90
35700;DHT22;21818;51.078;12.108;2023-11-21T03:48:29;12.80;94.00
35700;DHT22;21818;51.078;12.108;2023-11-21T03:50:55;12.80;93.90
35700;DHT22;21818;51.078;12.108;2023-11-21T03:53:20;12.80;93.90
35700;DHT22;21818;51.078;12.108;2023-11-21T03:55:46;12.80;93.80
35700;DHT22;21818;51.078;12.108;2023-11-21T03:58:11;12.80;93.80
35700;DHT22;21818;51.078;12.108;2023-11-21T04:00:37;12.90;93.90
35700;DHT22;21818;51.078;12.108;2023-11-21T04:03:03;12.90;93.80
35700;DHT22;21818;51.078;12.108;2023-11-21T04:05:29;12.80;93.80
35700;DHT22;21818;51.078;12.108;2023-11-21T04:07:54;12.80;93.80
35700;DHT22;21818;51.078;12.108;2023-11-21T04:10:20;12.70;93.90
35700;DHT22;21818;51.078;12.108;2023-11-21T04:12:46;12.80;93.90
35700;DHT22;21818;51.078;12.108;2023-11-21T04:15:12;12.70;93.90
35700;DHT22;21818;51.078;12.108;2023-11-21T04:17:41;12.80;93.90
35700;DHT22;21818;51.078;12.108;2023-11-21T04:20:08;12.70;93.90
35700;DHT22;21818;51.078;12.108;2023-11-21T04:22:41;12.60;93.90
35700;DHT22;21818;51.078;12.108;2023-11-21T04:25:13;12.50;94.00
35700;DHT22;21818;51.078;12.108;2023-11-21T04:27:40;12.50;94.10
35700;DHT22;21818;51.078;12.108;2023-11-21T04:30:06;12.40;94.20
35700;DHT22;21818;51.078;12.108;2023-11-21T04:32:33;12.30;94.20
35700;DHT22;21818;51.078;12.108;2023-11-21T04:34:58;12.30;94.30
35700;DHT22;21818;51.078;12.108;2023-11-21T04:37:24;12.30;94.30
35700;DHT22;21818;51.078;12.108;2023-11-21T04:39:50;12.30;94.30
35700;DHT22;21818;51.078;12.108;2023-11-21T04:42:15;12.30;94.30
35700;DHT22;21818;51.078;12.108;2023-11-21T04:44:41;12.20;94.30
35700;DHT22;21818;51.078;12.108;2023-11-21T04:47:07;12.20;94.30
35700;DHT22;21818;51.078;12.108;2023-11-21T04:49:33;12.20;94.30
35700;DHT22;21818;51.078;12.108;2023-11-21T04:51:59;12.20;94.30
35700;DHT22;21818;51.078;12.108;2023-11-21T04:54:25;12.10;94.40
35700;DHT22;21818;51.078;12.108;2023-11-21T04:56:50;12.10;94.40
35700;DHT22;21818;51.078;12.108;2023-11-21T04:59:16;12.10;94.50
35700;DHT22;21818;51.078;12.108;2023-11-21T05:01:41;12.00;94.40
35700;DHT22;21818;51.078;12.108;2023-11-21T05:04:07;12.00;94.50
35700;DHT22;21818;51.078;12.108;2023-11-21T05:06:34;12.00;94.50
35700;DHT22;21818;51.078;12.108;2023-11-21T05:09:00;12.00;94.60
35700;DHT22;21818;51.078;12.108;2023-11-21T05:11:26;12.10;94.60
35700;DHT22;21818;51.078;12.108;2023-11-21T05:13:52;12.10;94.60
35700;DHT22;21818;51.078;12.108;2023-11-21T05:16:19;12.10;94.60
35700;DHT22;21818;51.078;12.108;2023-11-21T05:18:45;12.10;94.60
35700;DHT22;21818;51.078;12.108;2023-11-21T05:21:10;12.10;94.70
35700;DHT22;21818;51.078;12.108;2023-11-21T05:23:36;12.00;94.70
35700;DHT22;21818;51.078;12.108;2023-11-21T05:26:03;12.00;94.70
35700;DHT22;21818;51.078;12.108;2023-11-21T05:28:29;12.00;94.70
35700;DHT22;21818;51.078;12.108;2023-11-21T05:30:54;12.00;94.80
35700;DHT22;21818;51.078;12.108;2023-11-21T05:33:20;12.00;94.80
35700;DHT22;21818;51.078;12.108;2023-11-21T05:35:46;12.00;94.80
35700;DHT22;21818;51.078;12.108;2023-11-21T05:38:14;12.00;94.80
35700;DHT22;21818;51.078;12.108;2023-11-21T05:40:39;12.10;94.70
35700;DHT22;21818;51.078;12.108;2023-11-21T05:43:06;12.10;94.70
35700;DHT22;21818;51.078;12.108;2023-11-21T05:45:32;12.10;94.80
35700;DHT22;21818;51.078;12.108;2023-11-21T05:47:58;12.10;94.70
35700;DHT22;21818;51.078;12.108;2023-11-21T05:50:24;12.20;94.70
35700;DHT22;21818;51.078;12.108;2023-11-21T05:52:50;12.20;94.60
35700;DHT22;21818;51.078;12.108;2023-11-21T05:55:16;12.30;94.60
35700;DHT22;21818;51.078;12.108;2023-11-21T05:57:43;12.30;94.60
35700;DHT22;21818;51.078;12.108;2023-11-21T06:00:11;12.30;94.60
35700;DHT22;21818;51.078;12.108;2023-11-21T06:02:38;12.30;94.70
35700;DHT22;21818;51.078;12.108;2023-11-21T06:05:06;12.30;94.70
35700;DHT22;21818;51.078;12.108;2023-11-21T06:07:32;12.30;94.70
35700;DHT22;21818;51.078;12.108;2023-11-21T06:09:57;12.30;94.60
35700;DHT22;21818;51.078;12.108;2023-11-21T06:12:23;12.30;94.60
35700;DHT22;21818;51.078;12.108;2023-11-21T06:14:48;12.40;94.60
35700;DHT22;21818;51.078;12.108;2023-11-21T06:17:14;12.30;94.60
35700;DHT22;21818;51.078;12.108;2023-11-21T06:19:39;12.30;94.70
35700;DHT22;21818;51.078;12.108;2023-11-21T06:22:05;12.30;94.60
35700;DHT22;21818;51.078;12.108;2023-11-21T06:24:31;12.30;94.60
35700;DHT22;21818;51.078;12.108;2023-11-21T06:26:57;12.30;94.60
35700;DHT22;21818;51.078;12.108;2023-11-21T06:29:22;12.40;94.60
35700;DHT22;21818;51.078;12.108;2023-11-21T06:31:49;12.40;94.60
35700;DHT22;21818;51.078;12.108;2023-11-21T06:34:14;12.40;94.60
35700;DHT22;21818;51.078;12.108;2023-11-21T06:36:40;12.40;94.70
35700;DHT22;21818;51.078;12.108;2023-11-21T06:39:05;12.60;94.80
35700;DHT22;21818;51.078;12.108;2023-11-21T06:41:33;12.90;94.60
35700;DHT22;21818;51.078;12.108;2023-11-21T06:43:59;13.20;94.40
35700;DHT22;21818;51.078;12.108;2023-11-21T06:46:24;13.30;94.30
35700;DHT22;21818;51.078;12.108;2023-11-21T06:48:50;13.50;94.20
35700;DHT22;21818;51.078;12.108;2023-11-21T06:51:16;13.60;94.10
35700;DHT22;21818;51.078;12.108;2023-11-21T06:53:41;13.70;94.00
35700;DHT22;21818;51.078;12.108;2023-11-21T06:56:19;13.80;94.00
35700;DHT22;21818;51.078;12.108;2023-11-21T06:58:46;13.90;93.90
35700;DHT22;21818;51.078;12.108;2023-11-21T07:01:13;13.90;93.90
35700;DHT22;21818;51.078;12.108;2023-11-21T07:03:39;14.00;93.80
35700;DHT22;21818;51.078;12.108;2023-11-21T07:06:05;14.00;93.80
35700;DHT22;21818;51.078;12.108;2023-11-21T07:08:31;14.10;93.80
35700;DHT22;21818;51.078;12.108;2023-11-21T07:10:56;14.10;93.70
35700;DHT22;21818;51.078;12.108;2023-11-21T07:13:22;14.10;93.70
35700;DHT22;21818;51.078;12.108;2023-11-21T07:15:49;14.10;93.70
35700;DHT22;21818;51.078;12.108;2023-11-21T07:18:15;14.10;93.70
35700;DHT22;21818;51.078;12.108;2023-11-21T07:20:40;14.10;93.60
35700;DHT22;21818;51.078;12.108;2023-11-21T07:23:06;14.10;93.60
35700;DHT22;21818;51.078;12.108;2023-11-21T07:25:32;14.10;93.50
35700;DHT22;21818;51.078;12.108;2023-11-21T07:27:59;14.10;93.50
35700;DHT22;21818;51.078;12.108;2023-11-21T07:30:25;14.10;93.50
35700;DHT22;21818;51.078;12.108;2023-11-21T07:32:50;14.10;93.50
35700;DHT22;21818;51.078;12.108;2023-11-21T07:35:16;14.20;93.50
35700;DHT22;21818;51.078;12.108;2023-11-21T07:37:41;14.20;93.40
35700;DHT22;21818;51.078;12.108;2023-11-21T07:40:08;14.30;93.40
35700;DHT22;21818;51.078;12.108;2023-11-21T07:42:34;14.30;93.30
35700;DHT22;21818;51.078;12.108;2023-11-21T07:45:00;14.40;93.30
35700;DHT22;21818;51.078;12.108;2023-11-21T07:47:26;14.40;93.30
35700;DHT22;21818;51.078;12.108;2023-11-21T07:49:53;14.30;93.20
35700;DHT22;21818;51.078;12.108;2023-11-21T07:52:18;14.30;93.30
35700;DHT22;21818;51.078;12.108;2023-11-21T07:54:46;14.30;93.20
35700;DHT22;21818;51.078;12.108;2023-11-21T07:57:12;14.30;93.20
35700;DHT22;21818;51.078;12.108;2023-11-21T07:59:39;14.30;93.20
35700;DHT22;21818;51.078;12.108;2023-11-21T08:02:06;14.30;93.20
35700;DHT22;21818;51.078;12.108;2023-11-21T08:04:32;14.30;93.10
35700;DHT22;21818;51.078;12.108;2023-11-21T08:06:58;14.30;93.10
35700;DHT22;21818;51.078;12.108;2023-11-21T08:09:23;14.30;93.10
35700;DHT22;21818;51.078;12.108;2023-11-21T08:11:49;14.30;93.10
35700;DHT22;21818;51.078;12.108;2023-11-21T08:14:15;14.30;93.10
35700;DHT22;21818;51.078;12.108;2023-11-21T08:16:41;14.30;93.10
35700;DHT22;21818;51.078;12.108;2023-11-21T08:19:06;14.30;93.10
35700;DHT22;21818;51.078;12.108;2023-11-21T08:21:34;14.30;93.20
35700;DHT22;21818;51.078;12.108;2023-11-21T08:23:59;14.50;93.40
35700;DHT22;21818;51.078;12.108;2023-11-21T08:26:25;14.80;93.30
35700;DHT22;21818;51.078;12.108;2023-11-21T08:28:51;15.00;93.20
35700;DHT22;21818;51.078;12.108;2023-11-21T08:31:28;15.20;93.20
35700;DHT22;21818;51.078;12.108;2023-11-21T08:33:54;15.30;93.10
35700;DHT22;21818;51.078;12.108;2023-11-21T08:36:21;15.30;93.20
35700;DHT22;21818;51.078;12.108;2023-11-21T08:38:48;15.30;93.20
35700;DHT22;21818;51.078;12.108;2023-11-21T08:41:14;15.20;93.20
35700;DHT22;21818;51.078;12.108;2023-11-21T08:43:41;15.10;93.30
35700;DHT22;21818;51.078;12.108;2023-11-21T08:46:07;15.10;93.40
35700;DHT22;21818;51.078;12.108;2023-11-21T08:48:35;15.10;93.40
35700;DHT22;21818;51.078;12.108;2023-11-21T08:51:02;15.10;93.50
35700;DHT22;21818;51.078;12.108;2023-11-21T08:53:27;15.10;93.40
35700;DHT22;21818;51.078;12.108;2023-11-21T08:55:53;15.00;93.40
35700;DHT22;21818;51.078;12.108;2023-11-21T08:58:19;15.00;93.50
35700;DHT22;21818;51.078;12.108;2023-11-21T09:00:45;14.90;93.50
35700;DHT22;21818;51.078;12.108;2023-11-21T09:03:12;14.90;93.50
35700;DHT22;21818;51.078;12.108;2023-11-21T09:05:38;14.90;93.50
35700;DHT22;21818;51.078;12.108;2023-11-21T09:08:05;15.00;93.40
35700;DHT22;21818;51.078;12.108;2023-11-21T09:10:31;15.00;93.40
35700;DHT22;21818;51.078;12.108;2023-11-21T09:12:57;15.00;93.40
35700;DHT22;21818;51.078;12.108;2023-11-21T09:15:24;15.00;93.30
35700;DHT22;21818;51.078;12.108;2023-11-21T09:17:50;15.00;93.30
35700;DHT22;21818;51.078;12.108;2023-11-21T09:20:16;15.00;93.30
35700;DHT22;21818;51.078;12.108;2023-11-21T09:22:41;15.00;93.20
35700;DHT22;21818;51.078;12.108;2023-11-21T09:25:07;15.00;93.20
35700;DHT22;21818;51.078;12.108;2023-11-21T09:27:34;15.00;93.20
35700;DHT22;21818;51.078;12.108;2023-11-21T09:30:01;14.90;93.20
35700;DHT22;21818;51.078;12.108;2023-11-21T09:32:27;14.90;93.20
35700;DHT22;21818;51.078;12.108;2023-11-21T09:34:52;14.80;93.20
35700;DHT22;21818;51.078;12.108;2023-11-21T09:37:21;14.80;93.20
35700;DHT22;21818;51.078;12.108;2023-11-21T09:39:46;14.80;93.20
35700;DHT22;21818;51.078;12.108;2023-11-21T09:42:17;14.80;93.20
35700;DHT22;21818;51.078;12.108;2023-11-21T09:47:27;14.80;93.20
35700;DHT22;21818;51.078;12.108;2023-11-21T09:49:54;14.70;93.20
35700;DHT22;21818;51.078;12.108;2023-11-21T09:52:26;14.70;93.20
35700;DHT22;21818;51.078;12.108;2023-11-21T09:54:55;14.70;93.20
35700;DHT22;21818;51.078;12.108;2023-11-21T09:57:24;14.80;93.20
35700;DHT22;21818;51.078;12.108;2023-11-21T09:59:54;14.80;93.20
35700;DHT22;21818;51.078;12.108;2023-11-21T10:02:28;14.80;93.10
35700;DHT22;21818;51.078;12.108;2023-11-21T10:04:55;14.80;93.10
35700;DHT22;21818;51.078;12.108;2023-11-21T10:07:22;14.80;93.00
35700;DHT22;21818;51.078;12.108;2023-11-21T10:09:48;14.80;93.00
35700;DHT22;21818;51.078;12.108;2023-11-21T10:12:16;14.80;93.00
35700;DHT22;21818;51.078;12.108;2023-11-21T10:14:42;14.90;93.00
35700;DHT22;21818;51.078;12.108;2023-11-21T10:17:10;14.90;92.90
35700;DHT22;21818;51.078;12.108;2023-11-21T10:19:39;14.80;92.90
35700;DHT22;21818;51.078;12.108;2023-11-21T10:22:05;14.90;92.90
35700;DHT22;21818;51.078;12.108;2023-11-21T10:24:32;14.90;92.90
35700;DHT22;21818;51.078;12.108;2023-11-21T10:26:58;14.90;92.90
35700;DHT22;21818;51.078;12.108;2023-11-21T10:29:25;14.90;92.80
35700;DHT22;21818;51.078;12.108;2023-11-21T10:31:52;14.90;92.80
35700;DHT22;21818;51.078;12.108;2023-11-21T10:34:20;14.90;92.70
35700;DHT22;21818;51.078;12.108;2023-11-21T10:36:47;14.90;92.70
35700;DHT22;21818;51.078;12.108;2023-11-21T10:39:30;14.90;92.70
35700;DHT22;21818;51.078;12.108;2023-11-21T10:41:58;15.00;92.70
35700;DHT22;21818;51.078;12.108;2023-11-21T10:44:24;14.90;92.70
35700;DHT22;21818;51.078;12.108;2023-11-21T10:46:55;15.00;92.60
35700;DHT22;21818;51.078;12.108;2023-11-21T10:49:26;14.90;92.60
35700;DHT22;21818;51.078;12.108;2023-11-21T10:51:53;14.90;92.60
35700;DHT22;21818;51.078;12.108;2023-11-21T10:54:23;14.90;92.60
35700;DHT22;21818;51.078;12.108;2023-11-21T10:56:53;14.90;92.60
35700;DHT22;21818;51.078;12.108;2023-11-21T10:59:22;14.90;92.60
35700;DHT22;21818;51.078;12.108;2023-11-21T11:01:51;15.00;92.60
35700;DHT22;21818;51.078;12.108;2023-11-21T11:04:22;15.00;92.80
35700;DHT22;21818;51.078;12.108;2023-11-21T11:06:54;15.00;92.50
35700;DHT22;21818;51.078;12.108;2023-11-21T11:09:22;15.00;92.50
35700;DHT22;21818;51.078;12.108;2023-11-21T11:11:47;15.00;92.50
35700;DHT22;21818;51.078;12.108;2023-11-21T11:14:14;15.00;92.40
35700;DHT22;21818;51.078;12.108;2023-11-21T11:16:41;15.00;92.30
35700;DHT22;21818;51.078;12.108;2023-11-21T11:19:07;15.00;92.30
35700;DHT22;21818;51.078;12.108;2023-11-21T11:21:45;15.00;92.30
35700;DHT22;21818;51.078;12.108;2023-11-21T11:24:36;15.00;92.40
35700;DHT22;21818;51.078;12.108;2023-11-21T11:30:26;15.00;92.30
35700;DHT22;21818;51.078;12.108;2023-11-21T11:38:13;15.10;92.30
35700;DHT22;21818;51.078;12.108;2023-11-21T11:40:45;15.00;92.20
35700;DHT22;21818;51.078;12.108;2023-11-21T11:43:11;15.10;92.30
35700;DHT22;21818;51.078;12.108;2023-11-21T11:45:37;15.10;92.30
35700;DHT22;21818;51.078;12.108;2023-11-21T11:48:17;15.00;92.30
35700;DHT22;21818;51.078;12.108;2023-11-21T11:51:01;15.00;92.20
35700;DHT22;21818;51.078;12.108;2023-11-21T11:53:33;15.00;92.20
35700;DHT22;21818;51.078;12.108;2023-11-21T11:56:30;15.00;92.20
35700;DHT22;21818;51.078;12.108;2023-11-21T11:58:58;15.00;92.20
35700;DHT22;21818;51.078;12.108;2023-11-21T12:01:26;15.00;92.30
35700;DHT22;21818;51.078;12.108;2023-11-21T12:06:40;14.90;92.20
35700;DHT22;21818;51.078;12.108;2023-11-21T12:09:06;15.00;92.20
35700;DHT22;21818;51.078;12.108;2023-11-21T12:11:33;15.00;92.30
35700;DHT22;21818;51.078;12.108;2023-11-21T12:14:01;15.00;92.20
35700;DHT22;21818;51.078;12.108;2023-11-21T12:16:27;15.00;92.20
35700;DHT22;21818;51.078;12.108;2023-11-21T12:18:53;15.00;92.20
35700;DHT22;21818;51.078;12.108;2023-11-21T12:21:20;15.00;92.10
35700;DHT22;21818;51.078;12.108;2023-11-21T12:23:46;15.00;92.10
35700;DHT22;21818;51.078;12.108;2023-11-21T12:26:13;15.10;92.10
35700;DHT22;21818;51.078;12.108;2023-11-21T12:28:39;15.00;92.00
35700;DHT22;21818;51.078;12.108;2023-11-21T12:31:05;15.10;92.00
35700;DHT22;21818;51.078;12.108;2023-11-21T12:33:34;15.00;92.00
35700;DHT22;21818;51.078;12.108;2023-11-21T12:36:00;15.00;92.00
35700;DHT22;21818;51.078;12.108;2023-11-21T12:38:34;15.00;92.00
35700;DHT22;21818;51.078;12.108;2023-11-21T12:41:03;15.00;92.00
35700;DHT22;21818;51.078;12.108;2023-11-21T12:43:29;15.00;92.00
35700;DHT22;21818;51.078;12.108;2023-11-21T12:46:08;14.90;92.00
35700;DHT22;21818;51.078;12.108;2023-11-21T12:48:41;15.00;92.00
35700;DHT22;21818;51.078;12.108;2023-11-21T12:51:11;14.90;92.00
35700;DHT22;21818;51.078;12.108;2023-11-21T12:53:38;14.90;92.10
35700;DHT22;21818;51.078;12.108;2023-11-21T12:56:11;14.90;92.00
35700;DHT22;21818;51.078;12.108;2023-11-21T12:58:38;14.90;92.00
35700;DHT22;21818;51.078;12.108;2023-11-21T13:01:07;14.90;92.00
35700;DHT22;21818;51.078;12.108;2023-11-21T13:03:40;14.90;92.00
35700;DHT22;21818;51.078;12.108;2023-11-21T13:06:06;14.90;92.00
35700;DHT22;21818;51.078;12.108;2023-11-21T13:08:33;14.90;92.00
35700;DHT22;21818;51.078;12.108;2023-11-21T13:10:59;15.00;92.00
35700;DHT22;21818;51.078;12.108;2023-11-21T13:13:28;15.00;92.00
35700;DHT22;21818;51.078;12.108;2023-11-21T13:15:55;14.90;91.90
35700;DHT22;21818;51.078;12.108;2023-11-21T13:18:24;14.90;91.90
35700;DHT22;21818;51.078;12.108;2023-11-21T13:20:55;14.90;92.00
35700;DHT22;21818;51.078;12.108;2023-11-21T13:23:22;14.90;92.00
35700;DHT22;21818;51.078;12.108;2023-11-21T13:25:48;14.90;92.00
35700;DHT22;21818;51.078;12.108;2023-11-21T13:28:15;14.90;92.00
35700;DHT22;21818;51.078;12.108;2023-11-21T13:30:46;14.90;92.00
35700;DHT22;21818;51.078;12.108;2023-11-21T13:33:14;14.90;92.00
35700;DHT22;21818;51.078;12.108;2023-11-21T13:35:43;14.90;92.00
35700;DHT22;21818;51.078;12.108;2023-11-21T13:38:16;14.90;92.00
35700;DHT22;21818;51.078;12.108;2023-11-21T13:40:46;14.90;92.00
35700;DHT22;21818;51.078;12.108;2023-11-21T13:43:18;14.90;92.00
35700;DHT22;21818;51.078;12.108;2023-11-21T13:45:46;14.80;92.00
35700;DHT22;21818;51.078;12.108;2023-11-21T13:48:13;14.80;92.00
35700;DHT22;21818;51.078;12.108;2023-11-21T13:50:47;14.80;92.00
35700;DHT22;21818;51.078;12.108;2023-11-21T13:53:34;14.80;92.00
35700;DHT22;21818;51.078;12.108;2023-11-21T13:56:03;14.80;92.00
35700;DHT22;21818;51.078;12.108;2023-11-21T13:58:29;14.80;92.00
35700;DHT22;21818;51.078;12.108;2023-11-21T14:01:10;14.80;92.10
35700;DHT22;21818;51.078;12.108;2023-11-21T14:03:56;14.80;92.10
35700;DHT22;21818;51.078;12.108;2023-11-21T14:06:27;14.80;92.10
35700;DHT22;21818;51.078;12.108;2023-11-21T14:09:00;14.80;92.10
35700;DHT22;21818;51.078;12.108;2023-11-21T14:11:32;14.70;92.10
35700;DHT22;21818;51.078;12.108;2023-11-21T14:14:00;14.70;92.10
35700;DHT22;21818;51.078;12.108;2023-11-21T14:16:27;14.70;92.30
35700;DHT22;21818;51.078;12.108;2023-11-21T14:18:52;14.70;92.10
35700;DHT22;21818;51.078;12.108;2023-11-21T14:21:24;14.70;92.10
35700;DHT22;21818;51.078;12.108;2023-11-21T14:23:49;14.70;92.10
35700;DHT22;21818;51.078;12.108;2023-11-21T14:26:15;14.80;92.10
35700;DHT22;21818;51.078;12.108;2023-11-21T14:28:42;14.70;92.10
35700;DHT22;21818;51.078;12.108;2023-11-21T14:31:09;14.70;92.00
35700;DHT22;21818;51.078;12.108;2023-11-21T14:33:40;14.70;92.00
35700;DHT22;21818;51.078;12.108;2023-11-21T14:36:07;14.70;92.00
35700;DHT22;21818;51.078;12.108;2023-11-21T14:38:38;14.70;92.00
35700;DHT22;21818;51.078;12.108;2023-11-21T14:41:05;14.70;92.00
35700;DHT22;21818;51.078;12.108;2023-11-21T14:43:34;14.70;92.00
35700;DHT22;21818;51.078;12.108;2023-11-21T14:46:04;14.70;92.00
35700;DHT22;21818;51.078;12.108;2023-11-21T14:48:34;14.70;92.10
35700;DHT22;21818;51.078;12.108;2023-11-21T14:51:11;14.70;92.10
35700;DHT22;21818;51.078;12.108;2023-11-21T14:53:36;14.70;92.10
35700;DHT22;21818;51.078;12.108;2023-11-21T14:56:09;14.70;92.10
35700;DHT22;21818;51.078;12.108;2023-11-21T14:58:35;14.70;92.10
35700;DHT22;21818;51.078;12.108;2023-11-21T15:01:03;14.70;92.10
35700;DHT22;21818;51.078;12.108;2023-11-21T15:03:29;14.70;92.10
35700;DHT22;21818;51.078;12.108;2023-11-21T15:06:05;14.70;92.10
35700;DHT22;21818;51.078;12.108;2023-11-21T15:08:54;14.70;92.10
35700;DHT22;21818;51.078;12.108;2023-11-21T15:11:40;14.70;92.10
35700;DHT22;21818;51.078;12.108;2023-11-21T15:14:07;14.70;92.10
35700;DHT22;21818;51.078;12.108;2023-11-21T15:16:35;14.70;92.10
35700;DHT22;21818;51.078;12.108;2023-11-21T15:19:05;14.70;92.30
35700;DHT22;21818;51.078;12.108;2023-11-21T15:21:31;14.60;92.10
35700;DHT22;21818;51.078;12.108;2023-11-21T15:23:58;14.60;92.10
35700;DHT22;21818;51.078;12.108;2023-11-21T15:26:25;14.60;92.10
35700;DHT22;21818;51.078;12.108;2023-11-21T15:28:52;14.70;92.10
35700;DHT22;21818;51.078;12.108;2023-11-21T15:31:18;14.60;92.10